Time;durP1;ratioP1;P1;durP2;ratioP2;P2;SDS_P1;SDS_P2;PMS_P1;PMS_P2;Temp;Humidity;BMP_temperature;BMP_pressure;BME280_temperature;BME280_humidity;BME280_pressure;Samples;Min_cycle;Max_cycle;Signal;HPM_P1;HPM_P2
2022/09/02 00:01:54;;;;;;;1.45;0.93;;;;;;;12.97;59.65;100086.36;1691379;83;21644;-74
2022/09/02 00:04:23;;;;;;;5.45;1.30;;;;;;;12.99;59.56;100092.33;1695608;83;21107;-74
2022/09/02 00:06:51;;;;;;;1.90;1.37;;;;;;;13.02;59.48;100089.11;1694412;84;20956;-75
2022/09/02 00:09:20;;;;;;;2.35;1.27;;;;;;;13.05;59.22;100086.70;1698653;83;21111;-73
2022/09/02 00:11:48;;;;;;;1.50;1.40;;;;;;;13.10;59.14;100090.80;1681409;84;21139;-72
2022/09/02 00:14:23;;;;;;;1.12;1.12;;;;;;;13.13;59.10;100095.45;1695794;83;21079;-74
2022/09/02 00:16:51;;;;;;;0.90;0.90;;;;;;;13.13;59.34;100090.88;1675308;84;21008;-75
2022/09/02 00:19:20;;;;;;;2.90;1.00;;;;;;;13.12;59.38;100091.12;1694151;83;21021;-72
2022/09/02 00:21:47;;;;;;;1.50;1.40;;;;;;;13.10;59.37;100091.33;1693805;84;21115;-71
2022/09/02 00:24:16;;;;;;;1.35;1.25;;;;;;;13.09;59.35;100094.56;1696909;83;21103;-70
2022/09/02 00:26:44;;;;;;;1.50;1.30;;;;;;;13.08;59.37;100099.71;1675363;84;21032;-70
2022/09/02 00:29:12;;;;;;;3.30;1.27;;;;;;;13.06;59.53;100096.44;1695516;84;21508;-71
2022/09/02 00:31:38;;;;;;;4.58;1.50;;;;;;;13.01;59.94;100096.39;1693929;83;21051;-77
2022/09/02 00:34:05;;;;;;;1.95;1.22;;;;;;;12.99;60.13;100099.90;1696813;83;21130;-77
2022/09/02 00:36:32;;;;;;;1.70;1.32;;;;;;;12.97;60.17;100093.92;1693360;84;21258;-74
2022/09/02 00:38:59;;;;;;;1.47;1.35;;;;;;;12.96;60.30;100100.92;1696835;83;21535;-71
2022/09/02 00:41:27;;;;;;;1.30;1.20;;;;;;;12.89;60.66;100101.67;1694670;84;21095;-74
2022/09/02 00:44:02;;;;;;;1.37;1.25;;;;;;;12.87;60.72;100104.63;1695652;83;21081;-73
2022/09/02 00:46:30;;;;;;;1.32;1.20;;;;;;;12.81;61.01;100104.81;1675608;84;21188;-74
2022/09/02 00:49:08;;;;;;;2.08;1.65;;;;;;;12.79;61.03;100113.19;1695113;84;21677;-73
2022/09/02 00:51:45;;;;;;;2.77;1.50;;;;;;;12.71;61.44;100110.12;1690899;83;21658;-73
2022/09/02 00:54:13;;;;;;;2.95;1.95;;;;;;;12.65;61.65;100113.30;1696710;83;21110;-72
2022/09/02 00:56:41;;;;;;;1.60;1.50;;;;;;;12.59;61.91;100115.66;1694849;84;21008;-72
2022/09/02 00:59:12;;;;;;;3.25;1.40;;;;;;;12.58;62.02;100120.76;1679137;84;21102;-72
2022/09/02 01:01:39;;;;;;;1.87;1.70;;;;;;;12.56;62.27;100122.91;1707173;83;21228;-69
2022/09/02 01:04:06;;;;;;;1.62;1.52;;;;;;;12.52;62.47;100125.81;1702029;83;21003;-68
2022/09/02 01:06:33;;;;;;;3.37;1.52;;;;;;;12.50;62.67;100123.91;1704783;84;21023;-70
2022/09/02 01:09:08;;;;;;;4.72;1.60;;;;;;;12.51;62.74;100126.90;1709339;82;21059;-70
2022/09/02 01:11:46;;;;;;;1.62;1.52;;;;;;;12.48;62.88;100124.69;1741496;81;20920;-71
2022/09/02 01:14:15;;;;;;;2.52;1.17;;;;;;;12.46;62.80;100124.95;1732369;81;21133;-70
2022/09/02 01:16:46;;;;;;;1.82;1.50;;;;;;;12.38;63.15;100136.16;1729933;83;21004;-70
2022/09/02 01:19:23;;;;;;;3.72;2.77;;;;;;;12.30;63.48;100128.52;1735451;81;21067;-71
2022/09/02 01:21:52;;;;;;;2.42;2.22;;;;;;;12.30;63.51;100133.09;1711422;83;21517;-70
2022/09/02 01:24:21;;;;;;;2.22;1.80;;;;;;;12.24;63.69;100131.67;1728500;82;21043;-74
2022/09/02 01:26:48;;;;;;;1.82;1.45;;;;;;;12.21;64.12;100135.41;1725509;82;21107;-72
2022/09/02 01:29:15;;;;;;;2.10;1.90;;;;;;;12.23;64.25;100131.39;1677177;84;21033;-70
2022/09/02 01:31:42;;;;;;;2.47;1.50;;;;;;;12.29;64.24;100138.20;1728036;81;21118;-72
2022/09/02 01:34:09;;;;;;;2.60;1.57;;;;;;;12.33;64.00;100142.02;1729746;82;21563;-74
2022/09/02 01:36:39;;;;;;;8.30;1.77;;;;;;;12.33;64.06;100142.84;1727621;82;21054;-75
2022/09/02 01:39:07;;;;;;;2.47;1.62;;;;;;;12.28;64.17;100148.16;1699610;83;21143;-73
2022/09/02 01:41:34;;;;;;;3.98;1.70;;;;;;;12.21;64.42;100145.67;1705595;83;21046;-71
2022/09/02 01:44:03;;;;;;;6.50;1.50;;;;;;;12.18;64.07;100153.45;1698784;84;21542;-72
2022/09/02 01:46:29;;;;;;;4.50;1.98;;;;;;;12.09;64.09;100150.34;1704050;83;21130;-71
2022/09/02 01:48:56;;;;;;;2.85;2.22;;;;;;;12.01;64.33;100156.17;1711225;83;21015;-74
2022/09/02 01:51:22;;;;;;;3.45;1.90;;;;;;;11.89;64.47;100158.69;1707347;83;21223;-74
2022/09/02 01:53:49;;;;;;;4.75;1.47;;;;;;;11.76;64.74;100159.82;1701996;84;21090;-71
2022/09/02 01:56:16;;;;;;;1.92;1.72;;;;;;;11.68;64.94;100156.98;1699789;84;21004;-76
2022/09/02 01:58:44;;;;;;;2.85;2.58;;;;;;;11.62;65.11;100158.48;1675342;85;20955;-70
2022/09/02 02:01:11;;;;;;;4.03;2.37;;;;;;;11.48;65.23;100159.34;1691490;83;21580;-69
2022/09/02 02:03:39;;;;;;;3.85;2.30;;;;;;;11.31;65.61;100166.08;1690608;84;21234;-71
2022/09/02 02:06:12;;;;;;;3.72;2.12;;;;;;;11.25;66.05;100163.00;1688495;84;21075;-71
2022/09/02 02:08:40;;;;;;;3.15;2.12;;;;;;;11.18;66.33;100166.89;1676793;84;21079;-70
2022/09/02 02:11:08;;;;;;;2.27;2.08;;;;;;;11.15;66.50;100177.62;1690469;83;21158;-67
2022/09/02 02:13:36;;;;;;;2.95;2.65;;;;;;;11.15;66.62;100174.94;1689711;84;21000;-68
2022/09/02 02:16:04;;;;;;;5.40;2.60;;;;;;;11.08;66.74;100179.63;1692178;84;21065;-68
2022/09/02 02:18:31;;;;;;;1.92;1.82;;;;;;;11.01;66.83;100176.29;1691178;82;21010;-69
2022/09/02 02:20:59;;;;;;;2.70;2.12;;;;;;;11.00;66.93;100185.41;1674424;84;21076;-69
2022/09/02 02:23:26;;;;;;;4.62;2.55;;;;;;;10.96;66.98;100180.75;1672111;85;21079;-69
2022/09/02 02:25:54;;;;;;;4.80;1.98;;;;;;;10.91;67.07;100184.98;1674068;84;21013;-68
2022/09/02 02:28:21;;;;;;;6.72;2.42;;;;;;;10.83;67.33;100181.34;1674128;84;21107;-69
2022/09/02 02:30:48;;;;;;;2.47;2.27;;;;;;;10.64;67.79;100179.87;1673670;84;21510;-69
2022/09/02 02:33:14;;;;;;;2.65;2.30;;;;;;;10.41;68.55;100188.79;1712337;83;20944;-69
2022/09/02 02:35:42;;;;;;;2.27;2.08;;;;;;;10.21;69.27;100184.86;1711945;83;20976;-69
2022/09/02 02:38:09;;;;;;;3.83;3.30;;;;;;;10.15;69.75;100183.89;1695506;83;21063;-68
2022/09/02 02:40:36;;;;;;;2.27;2.08;;;;;;;10.18;70.20;100188.83;1714787;82;21245;-71
2022/09/02 02:43:03;;;;;;;1.77;1.67;;;;;;;10.30;70.50;100190.99;1711717;83;21015;-69
2022/09/02 02:45:31;;;;;;;6.50;2.02;;;;;;;10.46;70.75;100185.39;1660151;86;21306;-69
2022/09/02 02:47:58;;;;;;;2.52;1.60;;;;;;;10.67;70.66;100187.98;1688545;83;21160;-71
2022/09/02 02:50:26;;;;;;;2.10;1.92;;;;;;;10.84;70.38;100186.98;1710099;83;21267;-70
2022/09/02 02:52:53;;;;;;;2.67;1.80;;;;;;;11.01;70.04;100188.92;1708837;83;21469;-70
2022/09/02 02:55:22;;;;;;;4.00;2.37;;;;;;;11.11;69.50;100191.28;1710172;83;21040;-68
2022/09/02 02:57:53;;;;;;;2.95;2.10;;;;;;;11.14;69.05;100199.39;1712901;83;21067;-69
2022/09/02 03:00:25;;;;;;;4.55;2.15;;;;;;;11.19;69.05;100190.89;1671784;84;21079;-71
2022/09/02 03:02:57;;;;;;;2.55;1.98;;;;;;;11.27;68.92;100187.80;1675681;84;21162;-70
2022/09/02 03:05:24;;;;;;;6.65;2.40;;;;;;;11.34;68.67;100188.47;1694266;84;21074;-70
2022/09/02 03:07:51;;;;;;;4.35;2.42;;;;;;;11.42;68.39;100194.51;1675329;84;21027;-69
2022/09/02 03:10:19;;;;;;;4.15;2.90;;;;;;;11.46;68.03;100193.81;1692297;84;22160;-70
2022/09/02 03:12:46;;;;;;;4.15;2.37;;;;;;;11.47;67.69;100198.64;1693200;84;20960;-69
2022/09/02 03:15:16;;;;;;;11.00;6.03;;;;;;;11.46;67.68;100203.77;1698778;83;21542;-69
2022/09/02 03:17:45;;;;;;;9.48;5.15;;;;;;;11.51;67.52;100199.25;1695598;83;21287;-69
2022/09/02 03:20:14;;;;;;;25.23;9.50;;;;;;;11.51;67.12;100196.56;1693004;84;21031;-68
2022/09/02 03:22:46;;;;;;;9.40;3.55;;;;;;;11.45;67.09;100198.91;1694233;84;21703;-72
2022/09/02 03:25:16;;;;;;;5.10;2.62;;;;;;;11.43;67.31;100204.23;1698757;83;21107;-71
2022/09/02 03:27:44;;;;;;;3.98;1.65;;;;;;;11.46;67.49;100211.31;1695830;83;20991;-70
2022/09/02 03:30:16;;;;;;;3.15;2.08;;;;;;;11.52;67.46;100210.84;1699384;83;21276;-70
2022/09/02 03:32:42;;;;;;;2.80;1.62;;;;;;;11.59;67.34;100215.56;1683655;83;21035;-72
2022/09/02 03:35:14;;;;;;;2.15;1.87;;;;;;;11.65;67.17;100215.95;1698224;83;21071;-71
2022/09/02 03:37:42;;;;;;;2.85;1.95;;;;;;;11.71;67.01;100219.81;1690329;84;21055;-70
2022/09/02 03:40:12;;;;;;;2.08;1.87;;;;;;;11.79;66.79;100228.08;1690081;83;21071;-71
2022/09/02 03:42:40;;;;;;;3.42;2.05;;;;;;;11.85;66.60;100231.11;1676791;84;21203;-69
2022/09/02 03:45:09;;;;;;;3.37;2.00;;;;;;;11.92;66.50;100230.96;1678017;84;21709;-71
2022/09/02 03:47:39;;;;;;;4.03;2.00;;;;;;;11.97;66.32;100237.26;1694512;83;21099;-71
2022/09/02 03:50:05;;;;;;;2.83;2.30;;;;;;;12.02;66.26;100236.52;1699465;83;21114;-71
2022/09/02 03:52:33;;;;;;;8.03;2.77;;;;;;;12.07;66.07;100241.46;1682808;84;21035;-70
2022/09/02 03:55:01;;;;;;;7.42;3.60;;;;;;;12.12;65.86;100245.59;1698224;83;21117;-72
2022/09/02 03:57:28;;;;;;;25.82;17.30;;;;;;;12.18;65.75;100262.67;1674625;84;21083;-70
2022/09/02 03:59:54;;;;;;;6.35;5.08;;;;;;;12.21;65.88;100259.47;1677311;83;21077;-70
2022/09/02 04:02:21;;;;;;;6.08;4.95;;;;;;;12.23;65.78;100258.67;1735775;82;21021;-69
2022/09/02 04:04:48;;;;;;;7.35;4.05;;;;;;;12.26;66.18;100260.08;1723791;82;20976;-69
2022/09/02 04:07:15;;;;;;;6.80;4.03;;;;;;;12.28;66.52;100260.09;1732481;82;21143;-72
2022/09/02 04:09:43;;;;;;;5.40;3.47;;;;;;;12.33;66.52;100262.88;1738998;82;21538;-68
2022/09/02 04:12:10;;;;;;;6.80;3.45;;;;;;;12.37;66.41;100260.52;1738315;82;21589;-71
2022/09/02 04:14:37;;;;;;;7.50;3.40;;;;;;;12.40;66.17;100262.71;1714658;82;21038;-71
2022/09/02 04:17:04;;;;;;;4.33;3.17;;;;;;;12.45;65.92;100266.30;1695193;83;21124;-70
2022/09/02 04:19:31;;;;;;;4.12;2.72;;;;;;;12.52;65.54;100274.20;1735625;82;22063;-71
2022/09/02 04:21:59;;;;;;;10.63;4.05;;;;;;;12.56;65.29;100278.06;1736040;82;21590;-72
2022/09/02 04:24:25;;;;;;;16.85;4.65;;;;;;;12.55;64.64;100284.52;1735796;82;20980;-71
2022/09/02 04:26:53;;;;;;;13.05;4.42;;;;;;;12.48;64.77;100280.64;1732656;82;37880;-72
2022/09/02 04:29:20;;;;;;;9.75;4.20;;;;;;;12.40;64.86;100281.59;1734938;82;21494;-68
2022/09/02 04:31:49;;;;;;;8.85;4.70;;;;;;;12.31;65.12;100281.20;1734329;82;21095;-73
2022/09/02 04:34:15;;;;;;;7.12;3.95;;;;;;;12.20;65.66;100282.09;1736413;81;20992;-71
2022/09/02 04:36:43;;;;;;;3.35;3.05;;;;;;;12.21;66.33;100286.44;1732805;82;21542;-72
2022/09/02 04:39:11;;;;;;;8.43;3.90;;;;;;;12.24;67.02;100282.70;1736299;82;20996;-72
2022/09/02 04:41:38;;;;;;;5.40;4.22;;;;;;;12.30;67.08;100291.70;1733799;82;20993;-71
2022/09/02 04:44:06;;;;;;;4.85;4.35;;;;;;;12.36;67.56;100293.42;1723858;82;21269;-71
2022/09/02 04:46:35;;;;;;;6.08;4.70;;;;;;;12.43;67.79;100294.05;1724460;82;20931;-69
2022/09/02 04:49:05;;;;;;;5.05;4.58;;;;;;;12.49;67.99;100294.95;1734246;82;20953;-70
2022/09/02 04:51:32;;;;;;;6.72;5.40;;;;;;;12.54;68.26;100291.80;1735395;81;21029;-71
2022/09/02 04:53:59;;;;;;;7.75;5.35;;;;;;;12.61;68.50;100294.33;1735569;82;21088;-68
2022/09/02 04:56:31;;;;;;;9.95;6.67;;;;;;;12.68;68.55;100297.66;1730881;82;21188;-69
2022/09/02 04:58:58;;;;;;;11.70;6.58;;;;;;;12.76;68.54;100303.18;1734676;82;21034;-68
2022/09/02 05:01:29;;;;;;;7.03;5.53;;;;;;;12.83;68.36;100301.92;1736622;82;21024;-69
2022/09/02 05:03:55;;;;;;;14.55;8.05;;;;;;;12.89;68.11;100298.23;1735047;82;21025;-69
2022/09/02 05:06:26;;;;;;;15.05;10.00;;;;;;;12.93;67.89;100299.89;1736296;82;20988;-69
2022/09/02 05:08:56;;;;;;;15.53;12.15;;;;;;;12.97;67.83;100303.19;1717548;82;21773;-68
2022/09/02 05:11:29;;;;;;;22.27;12.93;;;;;;;13.00;67.96;100305.91;1735608;82;21017;-67
2022/09/02 05:13:59;;;;;;;25.08;14.70;;;;;;;13.04;67.99;100304.36;1736637;82;20997;-69
2022/09/02 05:16:30;;;;;;;21.90;15.38;;;;;;;13.08;68.03;100309.01;1735750;82;20998;-69
2022/09/02 05:18:58;;;;;;;31.42;19.70;;;;;;;13.14;68.05;100308.55;1732738;82;21018;-70
2022/09/02 05:21:25;;;;;;;35.85;24.70;;;;;;;13.18;68.33;100309.70;1736189;82;21443;-70
2022/09/02 05:23:53;;;;;;;44.73;24.72;;;;;;;13.22;68.75;100305.42;1735460;82;20972;-70
2022/09/02 05:26:21;;;;;;;52.83;30.30;;;;;;;13.25;69.13;100304.91;1734223;82;21010;-70
2022/09/02 05:28:48;;;;;;;45.30;30.95;;;;;;;13.30;69.69;100300.92;1734113;82;21065;-71
2022/09/02 05:31:17;;;;;;;68.62;39.75;;;;;;;13.35;69.98;100312.31;1734320;82;21398;-71
2022/09/02 05:33:44;;;;;;;59.55;37.63;;;;;;;13.40;70.26;100311.02;1736397;81;21044;-69
2022/09/02 05:36:16;;;;;;;68.40;44.83;;;;;;;13.47;70.78;100315.71;1716612;82;21561;-70
2022/09/02 05:38:44;;;;;;;82.82;50.70;;;;;;;13.55;71.17;100323.36;1727890;82;20977;-69
2022/09/02 05:41:15;;;;;;;91.75;56.63;;;;;;;13.64;71.53;100317.78;1733320;82;21022;-71
2022/09/02 05:43:43;;;;;;;87.47;58.95;;;;;;;13.76;72.00;100325.75;1735574;82;21515;-69
2022/09/02 05:46:16;;;;;;;112.72;65.08;;;;;;;13.84;72.15;100321.22;1732471;82;21485;-72
2022/09/02 05:51:16;;;;;;;109.57;67.12;;;;;;;14.00;72.15;100323.55;1711855;81;20916;-73
2022/09/02 05:53:43;;;;;;;109.87;67.45;;;;;;;14.05;72.14;100330.36;1726650;82;21470;-72
2022/09/02 05:56:10;;;;;;;115.08;70.12;;;;;;;14.09;72.10;100330.12;1733879;82;21074;-71
2022/09/02 05:58:38;;;;;;;111.97;70.20;;;;;;;14.13;72.11;100329.34;1730048;82;21156;-73
2022/09/02 06:01:13;;;;;;;95.67;64.35;;;;;;;14.14;71.97;100328.27;1736163;82;20988;-73
2022/09/02 06:03:40;;;;;;;97.90;59.85;;;;;;;14.18;71.91;100323.98;1731567;82;21045;-75
2022/09/02 06:06:07;;;;;;;97.20;62.08;;;;;;;14.21;71.71;100328.04;1731590;82;21562;-73
2022/09/02 06:08:35;;;;;;;96.28;60.05;;;;;;;14.23;71.62;100328.08;1731890;82;21002;-73
2022/09/02 06:11:02;;;;;;;65.72;42.95;;;;;;;14.29;71.35;100327.02;1733991;82;21075;-72
2022/09/02 06:13:30;;;;;;;85.25;52.05;;;;;;;14.33;71.16;100328.16;1735843;82;20972;-74
2022/09/02 06:15:57;;;;;;;75.05;46.88;;;;;;;14.40;71.21;100327.42;1735572;82;21008;-72
2022/09/02 06:18:26;;;;;;;85.35;53.00;;;;;;;14.46;71.26;100324.22;1730623;82;20973;-72
2022/09/02 06:20:54;;;;;;;85.65;49.95;;;;;;;14.53;71.10;100328.06;1733706;82;21002;-72
2022/09/02 06:23:22;;;;;;;87.02;53.78;;;;;;;14.58;70.60;100330.25;1736065;82;21133;-73
2022/09/02 06:25:50;;;;;;;70.83;46.00;;;;;;;14.63;70.34;100330.81;1735895;82;21070;-72
2022/09/02 06:28:18;;;;;;;62.80;40.63;;;;;;;14.67;69.93;100339.55;1729588;82;21613;-74
2022/09/02 06:30:49;;;;;;;70.42;43.00;;;;;;;14.73;69.16;100340.36;1734349;82;21550;-72
2022/09/02 06:33:18;;;;;;;78.07;43.90;;;;;;;14.75;68.21;100338.22;1736959;82;20988;-72
2022/09/02 06:35:45;;;;;;;61.77;37.38;;;;;;;14.79;67.83;100345.56;1743583;81;21521;-71
2022/09/02 06:38:13;;;;;;;64.97;35.17;;;;;;;14.86;67.35;100351.30;1736085;82;21112;-70
2022/09/02 06:40:52;;;;;;;45.08;31.07;;;;;;;14.89;66.24;100354.29;1728844;82;21057;-70
2022/09/02 06:43:20;;;;;;;43.75;26.37;;;;;;;14.92;65.74;100353.75;1735226;82;21068;-72
2022/09/02 06:45:55;;;;;;;43.35;27.52;;;;;;;14.96;65.07;100345.41;1734983;82;20953;-70
2022/09/02 06:48:22;;;;;;;42.90;26.93;;;;;;;15.00;64.57;100344.34;1729517;82;21126;-72
2022/09/02 06:50:49;;;;;;;35.80;23.15;;;;;;;15.04;63.81;100348.97;1734445;82;20965;-71
2022/09/02 06:53:18;;;;;;;41.20;24.15;;;;;;;15.10;63.39;100353.34;1735517;82;21104;-69
2022/09/02 06:55:45;;;;;;;32.98;22.82;;;;;;;15.16;63.07;100358.22;1735718;82;20998;-71
2022/09/02 06:58:12;;;;;;;40.17;23.87;;;;;;;15.22;62.26;100355.28;1733555;82;21053;-71
2022/09/02 07:00:39;;;;;;;30.92;21.02;;;;;;;15.28;62.35;100357.48;1730628;82;21841;-69
2022/09/02 07:06:08;;;;;;;34.25;22.20;;;;;;;15.39;61.26;100364.59;1711994;83;20925;-71
2022/09/02 07:08:39;;;;;;;23.77;16.30;;;;;;;15.44;61.02;100355.66;1680900;85;21189;-69
2022/09/02 07:11:07;;;;;;;26.07;16.42;;;;;;;15.49;59.13;100354.31;1711718;82;21025;-68
2022/09/02 07:13:35;;;;;;;26.35;17.42;;;;;;;15.51;57.89;100359.77;1711665;83;21110;-71
2022/09/02 07:16:02;;;;;;;24.25;15.63;;;;;;;15.57;58.04;100363.31;1714276;83;20928;-70
2022/09/02 07:18:29;;;;;;;20.17;15.28;;;;;;;15.58;56.33;100368.48;1694930;83;21020;-74
2022/09/02 07:20:57;;;;;;;27.00;14.43;;;;;;;15.63;56.42;100369.04;1712048;83;20941;-70
2022/09/02 07:23:24;;;;;;;20.85;11.90;;;;;;;15.69;55.84;100379.62;1709976;83;21537;-71
2022/09/02 07:25:50;;;;;;;23.12;14.83;;;;;;;15.76;54.15;100371.78;1681562;85;21133;-72
2022/09/02 07:28:19;;;;;;;17.12;12.70;;;;;;;15.81;53.49;100369.08;1709581;83;21004;-72
2022/09/02 07:30:45;;;;;;;19.52;12.68;;;;;;;15.87;53.99;100370.73;1712464;83;21526;-72
2022/09/02 07:33:15;;;;;;;31.87;14.80;;;;;;;15.91;54.38;100372.64;1694613;83;21041;-72
2022/09/02 07:35:43;;;;;;;27.77;15.03;;;;;;;15.94;54.35;100364.48;1706478;84;21145;-72
2022/09/02 07:38:10;;;;;;;20.35;13.48;;;;;;;16.00;53.74;100370.20;1712268;82;21798;-69
2022/09/02 07:40:38;;;;;;;22.73;14.68;;;;;;;16.08;53.45;100377.81;1691235;84;21538;-72
2022/09/02 07:43:09;;;;;;;20.68;14.93;;;;;;;16.16;53.24;100377.84;1676907;85;21014;-72
2022/09/02 07:45:36;;;;;;;18.67;13.55;;;;;;;16.21;52.19;100376.48;1707044;83;21620;-70
2022/09/02 07:48:07;;;;;;;21.17;13.88;;;;;;;16.25;51.67;100377.03;1705919;83;21632;-70
2022/09/02 07:50:36;;;;;;;19.25;14.00;;;;;;;16.31;51.90;100373.75;1712165;83;21057;-69
2022/09/02 07:53:05;;;;;;;19.37;12.13;;;;;;;16.38;51.74;100367.52;1711653;83;20994;-70
2022/09/02 07:55:34;;;;;;;16.70;12.23;;;;;;;16.47;51.22;100376.76;1695477;83;21028;-70
2022/09/02 07:58:01;;;;;;;20.05;12.85;;;;;;;16.52;50.90;100373.50;1678434;85;21563;-71
2022/09/02 08:00:28;;;;;;;21.80;14.65;;;;;;;16.61;50.95;100368.90;1708231;83;21490;-71
2022/09/02 08:02:57;;;;;;;15.72;11.10;;;;;;;16.70;50.28;100369.98;1724329;82;21042;-69
2022/09/02 08:05:26;;;;;;;20.48;13.70;;;;;;;16.80;49.93;100357.73;1729835;81;20968;-70
2022/09/02 08:07:54;;;;;;;18.98;12.43;;;;;;;16.88;49.80;100366.72;1698428;84;21024;-68
2022/09/02 08:10:23;;;;;;;19.23;12.50;;;;;;;16.95;50.07;100361.80;1723641;83;21023;-69
2022/09/02 08:12:50;;;;;;;16.62;10.95;;;;;;;17.03;50.04;100361.76;1728363;83;21074;-69
2022/09/02 08:15:18;;;;;;;16.02;10.65;;;;;;;17.04;48.97;100366.92;1725229;82;21591;-70
2022/09/02 08:17:47;;;;;;;18.92;9.93;;;;;;;17.06;48.31;100371.55;1678708;85;21000;-69
2022/09/02 08:20:13;;;;;;;14.40;9.25;;;;;;;17.11;48.59;100363.39;1729601;83;21050;-70
2022/09/02 08:22:40;;;;;;;10.63;7.20;;;;;;;17.14;47.75;100365.55;1739477;81;21082;-70
2022/09/02 08:25:10;;;;;;;10.68;6.97;;;;;;;17.16;45.53;100366.64;1709161;82;22244;-69
2022/09/02 08:27:38;;;;;;;10.98;6.90;;;;;;;17.17;45.80;100364.20;1683461;84;21052;-71
2022/09/02 08:30:12;;;;;;;10.45;6.10;;;;;;;17.23;45.12;100368.50;1705288;83;21011;-70
2022/09/02 08:32:38;;;;;;;7.85;5.67;;;;;;;17.26;45.09;100372.86;1706045;82;21011;-71
2022/09/02 08:35:07;;;;;;;16.45;5.97;;;;;;;17.29;45.06;100370.94;1704875;83;21015;-71
2022/09/02 08:37:34;;;;;;;13.48;4.75;;;;;;;17.33;44.12;100380.70;1685406;84;21081;-74
2022/09/02 08:40:05;;;;;;;5.90;3.00;;;;;;;17.37;43.55;100364.91;1700010;83;21717;-72
2022/09/02 08:42:42;;;;;;;5.50;3.12;;;;;;;17.40;42.20;100374.44;1705098;84;20940;-70
2022/09/02 08:45:15;;;;;;;6.15;3.02;;;;;;;17.40;41.26;100369.00;1705951;83;21143;-73
2022/09/02 08:47:45;;;;;;;3.98;2.95;;;;;;;17.40;41.44;100369.00;1703016;82;21059;-72
2022/09/02 08:50:14;;;;;;;2.20;1.72;;;;;;;17.39;41.34;100370.09;1699248;83;21106;-71
2022/09/02 08:53:03;;;;;;;4.37;1.80;;;;;;;17.38;40.63;100380.69;1703897;83;21560;-72
2022/09/02 08:55:54;;;;;;;8.95;1.92;;;;;;;17.40;40.52;100360.84;1704479;83;21337;-68
2022/09/02 08:58:26;;;;;;;5.55;2.12;;;;;;;17.49;40.52;100363.25;1615297;86;21083;-69
2022/09/02 09:01:33;;;;;;;2.75;1.75;;;;;;;17.60;40.31;100359.97;1681589;83;21556;-72
2022/09/02 09:04:26;;;;;;;2.25;1.80;;;;;;;17.70;40.24;100364.78;1691843;84;21070;-72
2022/09/02 09:07:25;;;;;;;2.00;1.62;;;;;;;17.83;39.79;100343.78;1676052;84;21141;-74
2022/09/02 09:10:36;;;;;;;5.33;1.67;;;;;;;17.89;39.21;100349.20;1689105;83;21057;-69
2022/09/02 09:13:32;;;;;;;1.55;1.25;;;;;;;17.90;38.57;100350.80;1675527;83;21100;-70
2022/09/02 09:16:39;;;;;;;1.72;1.30;;;;;;;17.83;38.41;100357.94;1672443;85;21046;-69
2022/09/02 09:19:18;;;;;;;2.87;1.00;;;;;;;17.82;38.56;100350.86;1699047;83;21029;-72
2022/09/02 09:21:44;;;;;;;4.62;1.40;;;;;;;17.83;38.75;100349.77;1682083;83;22806;-70
2022/09/02 09:24:31;;;;;;;1.85;1.52;;;;;;;17.88;38.45;100341.58;1700417;83;21023;-70
2022/09/02 09:26:58;;;;;;;1.60;1.27;;;;;;;17.95;37.65;100353.49;1700112;84;21034;-69
2022/09/02 09:29:25;;;;;;;1.80;1.37;;;;;;;18.04;37.22;100352.61;1701237;84;21007;-69
2022/09/02 09:31:57;;;;;;;8.03;1.60;;;;;;;18.10;37.19;100351.48;1672585;84;21034;-73
2022/09/02 09:34:23;;;;;;;2.20;1.15;;;;;;;18.15;36.76;100377.31;1698874;83;21218;-70
2022/09/02 09:36:53;;;;;;;1.62;1.30;;;;;;;18.17;36.56;100356.63;1680546;83;20990;-72
2022/09/02 09:39:25;;;;;;;1.45;1.15;;;;;;;18.21;36.63;100356.31;1683665;83;20970;-69
2022/09/02 09:41:55;;;;;;;1.72;0.95;;;;;;;18.21;36.63;100347.60;1701923;83;21042;-68
2022/09/02 09:44:43;;;;;;;4.97;1.02;;;;;;;18.25;36.39;100336.94;1699370;83;21026;-69
2022/09/02 09:47:18;;;;;;;2.02;1.30;;;;;;;18.26;36.26;100349.47;1697628;84;21140;-69
2022/09/02 09:50:05;;;;;;;2.95;1.47;;;;;;;18.29;36.61;100344.80;1695343;84;21504;-69
2022/09/02 09:52:33;;;;;;;1.27;1.17;;;;;;;18.38;36.47;100351.81;1701399;84;20999;-77
2022/09/02 09:55:16;;;;;;;2.20;1.10;;;;;;;18.45;36.30;100349.03;1690761;83;21105;-79
2022/09/02 09:57:44;;;;;;;1.70;1.10;;;;;;;18.50;36.07;100344.91;1672962;85;21023;-74
2022/09/02 10:00:26;;;;;;;2.40;1.40;;;;;;;18.55;35.18;100368.05;1682555;84;21744;-75
2022/09/02 10:03:00;;;;;;;2.57;1.80;;;;;;;18.57;35.16;100350.03;1694411;83;21074;-71
2022/09/02 10:05:36;;;;;;;1.95;1.80;;;;;;;18.55;35.06;100361.24;1707524;82;21012;-70
2022/09/02 10:08:15;;;;;;;9.20;2.45;;;;;;;18.57;35.34;100352.22;1703925;84;21117;-68
2022/09/02 10:11:04;;;;;;;5.28;2.85;;;;;;;18.62;35.36;100352.17;1699506;83;21114;-69
2022/09/02 10:13:34;;;;;;;3.40;2.92;;;;;;;18.72;35.69;100345.27;1706662;83;21264;-70
2022/09/02 10:16:10;;;;;;;9.85;3.80;;;;;;;18.79;35.75;100346.30;1704043;84;20975;-70
2022/09/02 10:18:57;;;;;;;5.03;3.40;;;;;;;18.84;34.94;100350.89;1705777;83;21085;-69
2022/09/02 10:21:41;;;;;;;6.85;4.42;;;;;;;18.87;34.54;100368.02;1707127;83;21040;-74
2022/09/02 10:24:50;;;;;;;5.10;3.77;;;;;;;18.84;34.85;100345.44;1662913;83;21138;-71
2022/09/02 10:27:23;;;;;;;9.15;3.77;;;;;;;18.84;34.81;100345.44;1699882;83;21521;-72
2022/09/02 10:29:56;;;;;;;;;;;;;;;18.81;33.87;100349.53;1704323;83;21534;-69
2022/09/02 10:32:49;;;;;;;8.95;5.33;;;;;;;18.86;34.59;100378.11;1724950;81;20150;-70
2022/09/02 10:35:37;;;;;;;7.62;4.05;;;;;;;18.88;34.71;100356.02;1728944;82;21012;-70
2022/09/02 10:38:21;;;;;;;5.62;4.03;;;;;;;18.89;35.06;100344.84;1725778;81;20999;-72
2022/09/02 10:41:20;;;;;;;6.72;4.97;;;;;;;18.99;34.54;100351.52;1679023;83;21214;-76
2022/09/02 10:44:05;;;;;;;9.93;5.53;;;;;;;19.04;34.67;100358.28;1678679;83;21011;-66
2022/09/02 10:46:54;;;;;;;7.97;5.37;;;;;;;18.96;34.58;100360.28;1735370;81;21015;-68
2022/09/02 10:49:49;;;;;;;6.78;5.25;;;;;;;18.94;34.81;100339.88;1738017;81;20997;-67
2022/09/02 10:52:44;;;;;;;5.70;4.15;;;;;;;18.90;34.87;100359.25;1682034;84;21538;-68
2022/09/02 10:55:51;;;;;;;13.88;4.83;;;;;;;19.01;34.62;100353.41;1731428;81;21092;-69
2022/09/02 10:58:55;;;;;;;7.75;5.30;;;;;;;19.15;34.56;100336.62;1700332;83;21515;-68
2022/09/02 11:01:27;;;;;;;8.13;5.58;;;;;;;19.30;34.30;100355.27;1724565;83;21000;-69
2022/09/02 11:04:11;;;;;;;9.30;5.85;;;;;;;19.44;33.83;100344.75;1729666;81;21000;-70
2022/09/02 11:06:39;;;;;;;6.85;3.87;;;;;;;19.47;33.04;100345.52;1729796;81;21090;-70
2022/09/02 11:09:15;;;;;;;11.38;5.50;;;;;;;19.56;33.48;100334.24;1729426;82;21153;-68
2022/09/02 11:11:54;;;;;;;10.20;6.70;;;;;;;19.68;33.45;100332.98;1724014;81;20963;-70
2022/09/02 11:14:38;;;;;;;9.93;6.37;;;;;;;19.79;33.28;100343.47;1707632;83;21508;-69
2022/09/02 11:17:48;;;;;;;11.03;6.72;;;;;;;19.81;33.10;100350.80;1728291;81;21017;-70
2022/09/02 11:20:45;;;;;;;10.23;6.05;;;;;;;19.70;33.51;100350.70;1700938;84;21543;-74
2022/09/02 11:23:20;;;;;;;12.35;6.37;;;;;;;19.62;32.99;100344.51;1710184;83;21139;-73
2022/09/02 11:25:54;;;;;;;10.58;7.00;;;;;;;19.58;33.13;100333.92;1695870;84;21115;-73
2022/09/02 11:28:44;;;;;;;8.30;6.25;;;;;;;19.54;33.37;100345.17;1703988;84;21095;-74
2022/09/02 11:31:50;;;;;;;12.07;7.80;;;;;;;19.58;33.80;100351.66;1684563;84;21114;-73
2022/09/02 11:34:47;;;;;;;8.68;5.90;;;;;;;19.75;33.55;100336.98;1699796;84;21109;-74
2022/09/02 11:37:35;;;;;;;10.65;7.15;;;;;;;20.00;33.42;100331.67;1698949;84;21329;-75
2022/09/02 11:40:12;;;;;;;15.20;8.30;;;;;;;20.14;33.11;100350.88;1681516;84;21079;-75
2022/09/02 11:43:17;;;;;;;13.35;8.83;;;;;;;20.14;33.13;100338.04;1707694;83;20970;-72
2022/09/02 11:46:24;;;;;;;10.65;7.55;;;;;;;20.18;33.17;100337.70;1726777;81;20987;-72
2022/09/02 11:49:42;;;;;;;11.28;7.83;;;;;;;20.20;32.75;100334.64;1727617;81;47990;-68